sensor_id;sensor_type;location;lat;lon;timestamp;P1;durP1;ratioP1;P2;durP2;ratioP2
23155;SDS011;11746;50.876;4.246;2022-09-09T00:04:13;3.42;;;0.90;;
23155;SDS011;11746;50.876;4.246;2022-09-09T00:07:07;3.95;;;1.10;;
23155;SDS011;11746;50.876;4.246;2022-09-09T00:12:41;5.30;;;1.17;;
23155;SDS011;11746;50.876;4.246;2022-09-09T00:15:16;4.75;;;1.40;;
23155;SDS011;11746;50.876;4.246;2022-09-09T00:18:02;4.90;;;1.60;;
23155;SDS011;11746;50.876;4.246;2022-09-09T00:20:44;4.65;;;1.40;;
23155;SDS011;11746;50.876;4.246;2022-09-09T00:28:30;3.40;;;1.60;;
23155;SDS011;11746;50.876;4.246;2022-09-09T00:31:34;3.72;;;1.80;;
23155;SDS011;11746;50.876;4.246;2022-09-09T00:33:57;4.40;;;1.90;;
23155;SDS011;11746;50.876;4.246;2022-09-09T00:36:30;5.38;;;1.52;;
23155;SDS011;11746;50.876;4.246;2022-09-09T00:39:00;6.05;;;1.95;;
23155;SDS011;11746;50.876;4.246;2022-09-09T00:41:32;4.47;;;1.55;;
23155;SDS011;11746;50.876;4.246;2022-09-09T00:44:32;3.50;;;1.40;;
23155;SDS011;11746;50.876;4.246;2022-09-09T00:50:00;3.58;;;1.50;;
23155;SDS011;11746;50.876;4.246;2022-09-09T00:58:13;5.78;;;1.60;;
23155;SDS011;11746;50.876;4.246;2022-09-09T01:03:54;4.72;;;1.35;;
23155;SDS011;11746;50.876;4.246;2022-09-09T01:14:45;3.88;;;1.50;;
23155;SDS011;11746;50.876;4.246;2022-09-09T01:26:13;4.40;;;1.13;;
23155;SDS011;11746;50.876;4.246;2022-09-09T01:28:48;5.22;;;1.08;;
23155;SDS011;11746;50.876;4.246;2022-09-09T01:34:30;6.82;;;1.13;;
23155;SDS011;11746;50.876;4.246;2022-09-09T01:37:03;5.22;;;1.10;;
23155;SDS011;11746;50.876;4.246;2022-09-09T01:39:34;3.65;;;0.80;;
23155;SDS011;11746;50.876;4.246;2022-09-09T01:42:02;5.03;;;1.25;;
23155;SDS011;11746;50.876;4.246;2022-09-09T01:44:30;5.25;;;1.30;;
23155;SDS011;11746;50.876;4.246;2022-09-09T01:46:58;5.78;;;1.10;;
23155;SDS011;11746;50.876;4.246;2022-09-09T01:49:24;3.97;;;1.00;;
23155;SDS011;11746;50.876;4.246;2022-09-09T01:51:52;7.53;;;1.42;;
23155;SDS011;11746;50.876;4.246;2022-09-09T01:54:21;4.63;;;1.40;;
23155;SDS011;11746;50.876;4.246;2022-09-09T02:04:38;8.18;;;1.70;;
23155;SDS011;11746;50.876;4.246;2022-09-09T02:07:11;3.20;;;1.38;;
23155;SDS011;11746;50.876;4.246;2022-09-09T02:10:02;6.43;;;1.20;;
23155;SDS011;11746;50.876;4.246;2022-09-09T02:12:45;8.52;;;1.80;;
23155;SDS011;11746;50.876;4.246;2022-09-09T02:15:24;7.85;;;1.30;;
23155;SDS011;11746;50.876;4.246;2022-09-09T02:18:06;3.65;;;1.30;;
23155;SDS011;11746;50.876;4.246;2022-09-09T02:20:36;4.05;;;1.23;;
23155;SDS011;11746;50.876;4.246;2022-09-09T02:23:05;10.35;;;1.80;;
23155;SDS011;11746;50.876;4.246;2022-09-09T02:25:33;7.28;;;1.63;;
23155;SDS011;11746;50.876;4.246;2022-09-09T02:28:04;5.88;;;1.52;;
23155;SDS011;11746;50.876;4.246;2022-09-09T02:30:33;7.43;;;1.33;;
23155;SDS011;11746;50.876;4.246;2022-09-09T02:33:03;6.03;;;1.58;;
23155;SDS011;11746;50.876;4.246;2022-09-09T02:35:33;7.82;;;1.75;;
23155;SDS011;11746;50.876;4.246;2022-09-09T02:38:04;4.75;;;1.67;;
23155;SDS011;11746;50.876;4.246;2022-09-09T02:40:35;9.18;;;2.10;;
23155;SDS011;11746;50.876;4.246;2022-09-09T02:43:01;9.35;;;2.03;;
23155;SDS011;11746;50.876;4.246;2022-09-09T02:45:31;7.15;;;1.48;;
23155;SDS011;11746;50.876;4.246;2022-09-09T02:48:27;5.70;;;1.40;;
23155;SDS011;11746;50.876;4.246;2022-09-09T02:52:02;7.22;;;1.48;;
23155;SDS011;11746;50.876;4.246;2022-09-09T02:54:23;7.22;;;1.60;;
23155;SDS011;11746;50.876;4.246;2022-09-09T02:56:53;5.40;;;1.60;;
23155;SDS011;11746;50.876;4.246;2022-09-09T02:59:21;9.10;;;1.50;;
23155;SDS011;11746;50.876;4.246;2022-09-09T03:01:49;9.15;;;2.03;;
23155;SDS011;11746;50.876;4.246;2022-09-09T03:04:16;6.07;;;1.90;;
23155;SDS011;11746;50.876;4.246;2022-09-09T03:06:43;8.75;;;1.70;;
23155;SDS011;11746;50.876;4.246;2022-09-09T03:09:09;6.43;;;1.60;;
23155;SDS011;11746;50.876;4.246;2022-09-09T03:11:36;5.75;;;1.70;;
23155;SDS011;11746;50.876;4.246;2022-09-09T03:14:03;6.97;;;1.73;;
23155;SDS011;11746;50.876;4.246;2022-09-09T03:16:30;9.27;;;1.92;;
23155;SDS011;11746;50.876;4.246;2022-09-09T03:18:58;6.43;;;1.65;;
23155;SDS011;11746;50.876;4.246;2022-09-09T03:21:24;7.72;;;1.85;;
23155;SDS011;11746;50.876;4.246;2022-09-09T03:23:50;6.55;;;1.70;;
23155;SDS011;11746;50.876;4.246;2022-09-09T03:26:16;5.82;;;1.90;;
23155;SDS011;11746;50.876;4.246;2022-09-09T03:28:43;8.35;;;2.00;;
23155;SDS011;11746;50.876;4.246;2022-09-09T03:31:09;6.70;;;1.80;;
23155;SDS011;11746;50.876;4.246;2022-09-09T03:33:36;5.13;;;1.80;;
23155;SDS011;11746;50.876;4.246;2022-09-09T03:36:04;7.85;;;1.52;;
23155;SDS011;11746;50.876;4.246;2022-09-09T03:38:31;6.20;;;1.77;;
23155;SDS011;11746;50.876;4.246;2022-09-09T03:40:57;7.13;;;1.48;;
23155;SDS011;11746;50.876;4.246;2022-09-09T03:43:26;8.30;;;1.75;;
23155;SDS011;11746;50.876;4.246;2022-09-09T03:45:53;7.90;;;1.92;;
23155;SDS011;11746;50.876;4.246;2022-09-09T03:48:22;8.20;;;1.92;;
23155;SDS011;11746;50.876;4.246;2022-09-09T03:50:50;9.02;;;2.00;;
23155;SDS011;11746;50.876;4.246;2022-09-09T03:53:18;8.80;;;2.00;;
23155;SDS011;11746;50.876;4.246;2022-09-09T03:55:46;6.65;;;1.80;;
23155;SDS011;11746;50.876;4.246;2022-09-09T03:58:13;6.90;;;1.85;;
23155;SDS011;11746;50.876;4.246;2022-09-09T04:00:41;9.48;;;2.13;;
23155;SDS011;11746;50.876;4.246;2022-09-09T04:03:08;7.80;;;2.25;;
23155;SDS011;11746;50.876;4.246;2022-09-09T04:05:35;10.20;;;2.00;;
23155;SDS011;11746;50.876;4.246;2022-09-09T04:08:05;8.35;;;1.70;;
23155;SDS011;11746;50.876;4.246;2022-09-09T04:10:32;8.25;;;1.80;;
23155;SDS011;11746;50.876;4.246;2022-09-09T04:12:59;7.40;;;1.73;;
23155;SDS011;11746;50.876;4.246;2022-09-09T04:15:25;8.07;;;1.92;;
23155;SDS011;11746;50.876;4.246;2022-09-09T04:17:51;9.82;;;1.70;;
23155;SDS011;11746;50.876;4.246;2022-09-09T04:20:16;11.02;;;1.90;;
23155;SDS011;11746;50.876;4.246;2022-09-09T04:22:42;8.30;;;1.70;;
23155;SDS011;11746;50.876;4.246;2022-09-09T04:25:08;8.63;;;1.73;;
23155;SDS011;11746;50.876;4.246;2022-09-09T04:27:35;13.00;;;2.17;;
23155;SDS011;11746;50.876;4.246;2022-09-09T04:30:01;8.80;;;1.92;;
23155;SDS011;11746;50.876;4.246;2022-09-09T04:32:27;6.45;;;1.60;;
23155;SDS011;11746;50.876;4.246;2022-09-09T04:34:53;9.20;;;1.73;;
23155;SDS011;11746;50.876;4.246;2022-09-09T04:37:19;8.10;;;2.00;;
23155;SDS011;11746;50.876;4.246;2022-09-09T04:39:46;9.20;;;2.10;;
23155;SDS011;11746;50.876;4.246;2022-09-09T04:42:12;9.73;;;1.80;;
23155;SDS011;11746;50.876;4.246;2022-09-09T04:44:38;10.60;;;2.25;;
23155;SDS011;11746;50.876;4.246;2022-09-09T04:47:05;8.85;;;1.63;;
23155;SDS011;11746;50.876;4.246;2022-09-09T04:49:31;8.27;;;1.80;;
23155;SDS011;11746;50.876;4.246;2022-09-09T04:51:58;7.68;;;1.90;;
23155;SDS011;11746;50.876;4.246;2022-09-09T04:54:24;8.18;;;1.95;;
23155;SDS011;11746;50.876;4.246;2022-09-09T04:56:51;11.23;;;2.20;;
23155;SDS011;11746;50.876;4.246;2022-09-09T04:59:17;8.52;;;2.22;;
23155;SDS011;11746;50.876;4.246;2022-09-09T05:01:44;8.85;;;1.65;;
23155;SDS011;11746;50.876;4.246;2022-09-09T05:04:10;11.25;;;2.28;;
23155;SDS011;11746;50.876;4.246;2022-09-09T05:06:36;9.13;;;2.75;;
23155;SDS011;11746;50.876;4.246;2022-09-09T05:09:03;11.73;;;2.03;;
23155;SDS011;11746;50.876;4.246;2022-09-09T05:11:30;6.30;;;2.03;;
23155;SDS011;11746;50.876;4.246;2022-09-09T05:13:58;17.50;;;2.72;;
23155;SDS011;11746;50.876;4.246;2022-09-09T05:16:24;8.18;;;2.30;;
23155;SDS011;11746;50.876;4.246;2022-09-09T05:18:50;11.50;;;2.35;;
23155;SDS011;11746;50.876;4.246;2022-09-09T05:21:17;10.70;;;2.53;;
23155;SDS011;11746;50.876;4.246;2022-09-09T05:23:45;7.82;;;2.00;;
23155;SDS011;11746;50.876;4.246;2022-09-09T05:26:16;7.43;;;1.88;;
23155;SDS011;11746;50.876;4.246;2022-09-09T05:28:45;12.15;;;2.55;;
23155;SDS011;11746;50.876;4.246;2022-09-09T05:31:13;12.00;;;2.13;;
23155;SDS011;11746;50.876;4.246;2022-09-09T05:33:40;10.15;;;2.25;;
23155;SDS011;11746;50.876;4.246;2022-09-09T05:36:17;14.25;;;2.15;;
23155;SDS011;11746;50.876;4.246;2022-09-09T05:38:45;7.22;;;1.92;;
23155;SDS011;11746;50.876;4.246;2022-09-09T05:41:12;10.10;;;1.98;;
23155;SDS011;11746;50.876;4.246;2022-09-09T05:43:43;10.15;;;1.95;;
23155;SDS011;11746;50.876;4.246;2022-09-09T05:46:11;11.57;;;2.15;;
23155;SDS011;11746;50.876;4.246;2022-09-09T05:48:39;9.20;;;2.30;;
23155;SDS011;11746;50.876;4.246;2022-09-09T05:51:12;11.40;;;2.45;;
23155;SDS011;11746;50.876;4.246;2022-09-09T05:53:49;7.43;;;1.80;;
23155;SDS011;11746;50.876;4.246;2022-09-09T05:56:20;12.35;;;2.42;;
23155;SDS011;11746;50.876;4.246;2022-09-09T05:58:49;11.93;;;2.20;;
23155;SDS011;11746;50.876;4.246;2022-09-09T06:01:16;10.20;;;2.55;;
23155;SDS011;11746;50.876;4.246;2022-09-09T06:03:45;7.13;;;2.13;;
23155;SDS011;11746;50.876;4.246;2022-09-09T06:06:15;14.52;;;2.95;;
23155;SDS011;11746;50.876;4.246;2022-09-09T06:08:46;9.10;;;2.20;;
23155;SDS011;11746;50.876;4.246;2022-09-09T06:11:14;7.18;;;1.65;;
23155;SDS011;11746;50.876;4.246;2022-09-09T06:13:42;8.05;;;2.42;;
23155;SDS011;11746;50.876;4.246;2022-09-09T06:16:09;8.70;;;2.30;;
23155;SDS011;11746;50.876;4.246;2022-09-09T06:18:36;12.57;;;2.47;;
23155;SDS011;11746;50.876;4.246;2022-09-09T06:21:04;9.25;;;1.90;;
23155;SDS011;11746;50.876;4.246;2022-09-09T06:23:32;11.30;;;2.10;;
23155;SDS011;11746;50.876;4.246;2022-09-09T06:26:07;9.60;;;2.17;;
23155;SDS011;11746;50.876;4.246;2022-09-09T06:28:35;11.07;;;1.90;;
23155;SDS011;11746;50.876;4.246;2022-09-09T06:31:03;8.38;;;2.00;;
23155;SDS011;11746;50.876;4.246;2022-09-09T06:33:34;10.73;;;1.95;;
23155;SDS011;11746;50.876;4.246;2022-09-09T06:36:04;11.45;;;1.70;;
23155;SDS011;11746;50.876;4.246;2022-09-09T06:38:31;10.40;;;2.35;;
23155;SDS011;11746;50.876;4.246;2022-09-09T06:40:58;8.82;;;1.80;;
23155;SDS011;11746;50.876;4.246;2022-09-09T06:43:25;10.65;;;1.75;;
23155;SDS011;11746;50.876;4.246;2022-09-09T06:46:02;9.07;;;1.80;;
23155;SDS011;11746;50.876;4.246;2022-09-09T06:48:33;7.93;;;1.77;;
23155;SDS011;11746;50.876;4.246;2022-09-09T06:51:04;9.15;;;1.95;;
23155;SDS011;11746;50.876;4.246;2022-09-09T06:53:58;9.95;;;1.65;;
23155;SDS011;11746;50.876;4.246;2022-09-09T06:56:26;9.13;;;1.65;;
23155;SDS011;11746;50.876;4.246;2022-09-09T06:58:53;11.30;;;1.85;;
23155;SDS011;11746;50.876;4.246;2022-09-09T07:01:23;7.22;;;1.88;;
23155;SDS011;11746;50.876;4.246;2022-09-09T07:03:54;10.48;;;2.13;;
23155;SDS011;11746;50.876;4.246;2022-09-09T07:06:26;11.18;;;2.22;;
23155;SDS011;11746;50.876;4.246;2022-09-09T07:09:12;9.13;;;2.10;;
23155;SDS011;11746;50.876;4.246;2022-09-09T07:11:41;12.63;;;2.28;;
23155;SDS011;11746;50.876;4.246;2022-09-09T07:14:08;7.53;;;1.73;;
23155;SDS011;11746;50.876;4.246;2022-09-09T07:16:39;10.88;;;2.05;;
23155;SDS011;11746;50.876;4.246;2022-09-09T07:19:09;9.82;;;1.85;;
23155;SDS011;11746;50.876;4.246;2022-09-09T07:21:36;11.25;;;2.47;;
23155;SDS011;11746;50.876;4.246;2022-09-09T07:24:03;9.55;;;1.98;;
23155;SDS011;11746;50.876;4.246;2022-09-09T07:26:32;8.38;;;1.90;;
23155;SDS011;11746;50.876;4.246;2022-09-09T07:29:02;13.32;;;2.00;;
23155;SDS011;11746;50.876;4.246;2022-09-09T07:31:30;12.05;;;2.38;;
23155;SDS011;11746;50.876;4.246;2022-09-09T07:34:00;10.88;;;2.08;;
23155;SDS011;11746;50.876;4.246;2022-09-09T07:36:28;11.60;;;2.20;;
23155;SDS011;11746;50.876;4.246;2022-09-09T07:39:08;9.02;;;2.47;;
23155;SDS011;11746;50.876;4.246;2022-09-09T07:41:38;8.27;;;2.25;;
23155;SDS011;11746;50.876;4.246;2022-09-09T07:44:10;10.27;;;1.75;;
23155;SDS011;11746;50.876;4.246;2022-09-09T07:46:41;5.60;;;1.65;;
23155;SDS011;11746;50.876;4.246;2022-09-09T07:49:08;7.47;;;1.55;;
23155;SDS011;11746;50.876;4.246;2022-09-09T07:51:37;7.70;;;1.70;;
23155;SDS011;11746;50.876;4.246;2022-09-09T07:54:06;9.75;;;2.05;;
23155;SDS011;11746;50.876;4.246;2022-09-09T07:56:34;9.70;;;1.80;;
23155;SDS011;11746;50.876;4.246;2022-09-09T07:59:01;9.95;;;1.63;;
23155;SDS011;11746;50.876;4.246;2022-09-09T08:01:33;9.65;;;2.08;;
23155;SDS011;11746;50.876;4.246;2022-09-09T08:04:07;9.25;;;1.80;;
23155;SDS011;11746;50.876;4.246;2022-09-09T08:06:41;11.02;;;2.03;;
23155;SDS011;11746;50.876;4.246;2022-09-09T08:09:11;7.53;;;2.45;;
23155;SDS011;11746;50.876;4.246;2022-09-09T08:11:38;5.60;;;1.98;;
23155;SDS011;11746;50.876;4.246;2022-09-09T08:14:06;8.00;;;1.65;;
23155;SDS011;11746;50.876;4.246;2022-09-09T08:16:34;7.60;;;1.90;;
23155;SDS011;11746;50.876;4.246;2022-09-09T08:19:03;6.35;;;2.00;;
23155;SDS011;11746;50.876;4.246;2022-09-09T08:21:30;11.18;;;2.10;;
23155;SDS011;11746;50.876;4.246;2022-09-09T08:23:59;8.60;;;1.95;;
23155;SDS011;11746;50.876;4.246;2022-09-09T08:26:30;8.73;;;1.40;;
23155;SDS011;11746;50.876;4.246;2022-09-09T08:28:58;7.20;;;1.80;;
23155;SDS011;11746;50.876;4.246;2022-09-09T08:31:33;12.32;;;2.38;;
23155;SDS011;11746;50.876;4.246;2022-09-09T08:34:02;6.63;;;1.75;;
23155;SDS011;11746;50.876;4.246;2022-09-09T08:36:30;8.60;;;1.88;;
23155;SDS011;11746;50.876;4.246;2022-09-09T08:39:01;7.47;;;1.88;;
23155;SDS011;11746;50.876;4.246;2022-09-09T08:52:26;8.05;;;2.00;;
23155;SDS011;11746;50.876;4.246;2022-09-09T08:54:56;9.15;;;2.05;;
23155;SDS011;11746;50.876;4.246;2022-09-09T08:59:56;10.13;;;2.35;;
23155;SDS011;11746;50.876;4.246;2022-09-09T09:07:53;6.93;;;2.10;;
23155;SDS011;11746;50.876;4.246;2022-09-09T09:10:34;9.00;;;1.92;;
23155;SDS011;11746;50.876;4.246;2022-09-09T09:16:13;11.40;;;2.13;;
23155;SDS011;11746;50.876;4.246;2022-09-09T09:18:47;10.20;;;2.40;;
23155;SDS011;11746;50.876;4.246;2022-09-09T09:24:01;9.23;;;2.03;;
23155;SDS011;11746;50.876;4.246;2022-09-09T09:26:32;10.25;;;2.13;;
23155;SDS011;11746;50.876;4.246;2022-09-09T09:29:00;7.07;;;1.90;;
23155;SDS011;11746;50.876;4.246;2022-09-09T09:31:36;10.50;;;1.98;;
23155;SDS011;11746;50.876;4.246;2022-09-09T09:34:02;9.20;;;2.17;;
23155;SDS011;11746;50.876;4.246;2022-09-09T09:36:39;7.22;;;1.90;;
23155;SDS011;11746;50.876;4.246;2022-09-09T09:39:07;7.55;;;1.65;;
23155;SDS011;11746;50.876;4.246;2022-09-09T09:41:41;8.13;;;2.10;;
23155;SDS011;11746;50.876;4.246;2022-09-09T09:46:52;8.85;;;2.42;;
23155;SDS011;11746;50.876;4.246;2022-09-09T09:49:30;6.43;;;1.60;;
23155;SDS011;11746;50.876;4.246;2022-09-09T09:52:01;8.75;;;1.88;;
23155;SDS011;11746;50.876;4.246;2022-09-09T09:54:37;7.65;;;1.92;;
23155;SDS011;11746;50.876;4.246;2022-09-09T09:57:08;9.15;;;1.60;;
23155;SDS011;11746;50.876;4.246;2022-09-09T09:59:39;9.77;;;2.03;;
23155;SDS011;11746;50.876;4.246;2022-09-09T10:04:44;4.57;;;1.30;;
23155;SDS011;11746;50.876;4.246;2022-09-09T10:07:20;5.68;;;1.50;;
23155;SDS011;11746;50.876;4.246;2022-09-09T10:09:50;5.72;;;1.65;;
23155;SDS011;11746;50.876;4.246;2022-09-09T10:20:34;7.75;;;1.38;;
23155;SDS011;11746;50.876;4.246;2022-09-09T10:34:20;10.10;;;1.63;;
23155;SDS011;11746;50.876;4.246;2022-09-09T10:37:49;6.32;;;1.35;;
23155;SDS011;11746;50.876;4.246;2022-09-09T10:40:27;8.38;;;2.15;;
23155;SDS011;11746;50.876;4.246;2022-09-09T10:43:03;4.80;;;1.48;;
23155;SDS011;11746;50.876;4.246;2022-09-09T10:51:50;8.15;;;2.00;;
23155;SDS011;11746;50.876;4.246;2022-09-09T10:54:47;5.70;;;1.40;;
23155;SDS011;11746;50.876;4.246;2022-09-09T10:57:36;8.45;;;1.92;;
23155;SDS011;11746;50.876;4.246;2022-09-09T11:00:04;8.93;;;1.70;;
23155;SDS011;11746;50.876;4.246;2022-09-09T11:02:33;6.68;;;1.65;;
23155;SDS011;11746;50.876;4.246;2022-09-09T11:07:50;5.47;;;1.33;;
23155;SDS011;11746;50.876;4.246;2022-09-09T11:10:55;5.32;;;1.27;;
23155;SDS011;11746;50.876;4.246;2022-09-09T11:21:48;7.93;;;1.23;;
23155;SDS011;11746;50.876;4.246;2022-09-09T11:34:57;5.85;;;1.42;;
23155;SDS011;11746;50.876;4.246;2022-09-09T11:40:24;4.68;;;1.15;;
23155;SDS011;11746;50.876;4.246;2022-09-09T11:45:40;6.20;;;1.23;;
23155;SDS011;11746;50.876;4.246;2022-09-09T11:48:27;4.97;;;1.10;;
23155;SDS011;11746;50.876;4.246;2022-09-09T11:51:04;5.43;;;1.17;;
23155;SDS011;11746;50.876;4.246;2022-09-09T11:53:32;4.05;;;1.05;;
23155;SDS011;11746;50.876;4.246;2022-09-09T11:56:28;5.97;;;1.20;;
23155;SDS011;11746;50.876;4.246;2022-09-09T11:59:06;5.50;;;1.30;;
23155;SDS011;11746;50.876;4.246;2022-09-09T12:01:43;5.65;;;1.30;;
23155;SDS011;11746;50.876;4.246;2022-09-09T12:09:56;5.18;;;1.45;;
23155;SDS011;11746;50.876;4.246;2022-09-09T12:12:49;7.80;;;1.92;;
23155;SDS011;11746;50.876;4.246;2022-09-09T12:17:54;5.57;;;1.23;;
23155;SDS011;11746;50.876;4.246;2022-09-09T12:25:47;4.93;;;1.13;;
23155;SDS011;11746;50.876;4.246;2022-09-09T12:33:55;6.60;;;1.55;;
23155;SDS011;11746;50.876;4.246;2022-09-09T12:36:41;3.80;;;1.17;;
23155;SDS011;11746;50.876;4.246;2022-09-09T12:39:15;3.50;;;1.02;;
23155;SDS011;11746;50.876;4.246;2022-09-09T12:41:52;4.28;;;1.20;;
23155;SDS011;11746;50.876;4.246;2022-09-09T12:44:23;4.45;;;1.13;;
23155;SDS011;11746;50.876;4.246;2022-09-09T12:46:50;6.32;;;1.58;;
23155;SDS011;11746;50.876;4.246;2022-09-09T12:52:08;4.07;;;0.80;;
23155;SDS011;11746;50.876;4.246;2022-09-09T12:54:43;8.18;;;1.48;;
23155;SDS011;11746;50.876;4.246;2022-09-09T12:57:16;5.65;;;0.90;;
23155;SDS011;11746;50.876;4.246;2022-09-09T12:59:43;3.53;;;0.82;;
23155;SDS011;11746;50.876;4.246;2022-09-09T13:02:22;3.53;;;1.00;;
23155;SDS011;11746;50.876;4.246;2022-09-09T13:04:52;4.28;;;0.85;;
23155;SDS011;11746;50.876;4.246;2022-09-09T13:07:20;5.63;;;1.23;;
23155;SDS011;11746;50.876;4.246;2022-09-09T13:09:47;2.33;;;0.80;;
23155;SDS011;11746;50.876;4.246;2022-09-09T13:12:21;3.95;;;1.00;;
23155;SDS011;11746;50.876;4.246;2022-09-09T13:14:49;2.93;;;1.03;;
23155;SDS011;11746;50.876;4.246;2022-09-09T13:17:22;4.75;;;1.00;;
23155;SDS011;11746;50.876;4.246;2022-09-09T13:19:50;3.58;;;1.00;;
23155;SDS011;11746;50.876;4.246;2022-09-09T13:22:21;3.38;;;1.10;;
23155;SDS011;11746;50.876;4.246;2022-09-09T13:29:59;2.78;;;0.80;;
23155;SDS011;11746;50.876;4.246;2022-09-09T13:32:25;4.28;;;1.05;;
23155;SDS011;11746;50.876;4.246;2022-09-09T13:34:53;5.00;;;1.15;;
23155;SDS011;11746;50.876;4.246;2022-09-09T13:39:53;3.28;;;1.10;;
23155;SDS011;11746;50.876;4.246;2022-09-09T13:42:27;2.10;;;0.80;;
23155;SDS011;11746;50.876;4.246;2022-09-09T13:47:21;3.83;;;0.75;;
23155;SDS011;11746;50.876;4.246;2022-09-09T13:50:10;5.47;;;0.90;;
23155;SDS011;11746;50.876;4.246;2022-09-09T13:52:49;2.85;;;0.82;;
23155;SDS011;11746;50.876;4.246;2022-09-09T13:55:18;2.67;;;0.90;;
23155;SDS011;11746;50.876;4.246;2022-09-09T13:57:53;5.45;;;1.05;;
23155;SDS011;11746;50.876;4.246;2022-09-09T14:00:21;3.15;;;0.82;;
23155;SDS011;11746;50.876;4.246;2022-09-09T14:02:48;4.25;;;1.00;;
23155;SDS011;11746;50.876;4.246;2022-09-09T14:05:14;7.25;;;1.30;;
23155;SDS011;11746;50.876;4.246;2022-09-09T14:07:41;3.95;;;1.23;;
23155;SDS011;11746;50.876;4.246;2022-09-09T14:10:09;5.85;;;1.00;;
23155;SDS011;11746;50.876;4.246;2022-09-09T14:12:36;5.47;;;1.70;;
23155;SDS011;11746;50.876;4.246;2022-09-09T14:15:02;3.35;;;1.00;;
23155;SDS011;11746;50.876;4.246;2022-09-09T14:17:29;5.25;;;1.42;;
23155;SDS011;11746;50.876;4.246;2022-09-09T14:19:56;4.07;;;1.17;;
23155;SDS011;11746;50.876;4.246;2022-09-09T14:22:25;5.75;;;1.10;;
23155;SDS011;11746;50.876;4.246;2022-09-09T14:24:51;5.60;;;1.20;;
23155;SDS011;11746;50.876;4.246;2022-09-09T14:27:19;3.70;;;1.30;;
23155;SDS011;11746;50.876;4.246;2022-09-09T14:29:45;7.18;;;1.17;;
23155;SDS011;11746;50.876;4.246;2022-09-09T14:32:12;6.13;;;1.35;;
23155;SDS011;11746;50.876;4.246;2022-09-09T14:34:37;2.10;;;1.08;;
23155;SDS011;11746;50.876;4.246;2022-09-09T14:37:03;3.38;;;0.80;;
23155;SDS011;11746;50.876;4.246;2022-09-09T14:39:29;4.32;;;1.27;;
23155;SDS011;11746;50.876;4.246;2022-09-09T14:41:59;3.58;;;1.08;;
23155;SDS011;11746;50.876;4.246;2022-09-09T14:44:28;3.90;;;1.20;;
23155;SDS011;11746;50.876;4.246;2022-09-09T14:46:54;3.42;;;0.88;;
23155;SDS011;11746;50.876;4.246;2022-09-09T14:49:20;3.70;;;0.70;;
23155;SDS011;11746;50.876;4.246;2022-09-09T14:51:46;4.05;;;1.10;;
23155;SDS011;11746;50.876;4.246;2022-09-09T14:54:14;3.58;;;1.00;;
23155;SDS011;11746;50.876;4.246;2022-09-09T14:56:41;4.35;;;1.17;;
23155;SDS011;11746;50.876;4.246;2022-09-09T14:59:07;2.22;;;0.90;;
23155;SDS011;11746;50.876;4.246;2022-09-09T15:01:34;2.78;;;0.90;;
23155;SDS011;11746;50.876;4.246;2022-09-09T15:04:01;3.42;;;1.00;;
23155;SDS011;11746;50.876;4.246;2022-09-09T15:06:32;2.08;;;0.50;;
23155;SDS011;11746;50.876;4.246;2022-09-09T15:09:00;3.25;;;1.30;;
23155;SDS011;11746;50.876;4.246;2022-09-09T15:11:28;4.32;;;1.10;;
23155;SDS011;11746;50.876;4.246;2022-09-09T15:13:56;5.43;;;0.95;;
23155;SDS011;11746;50.876;4.246;2022-09-09T15:16:26;4.05;;;1.00;;
23155;SDS011;11746;50.876;4.246;2022-09-09T15:18:55;5.05;;;1.05;;
23155;SDS011;11746;50.876;4.246;2022-09-09T15:21:24;5.63;;;1.35;;
23155;SDS011;11746;50.876;4.246;2022-09-09T15:23:52;5.85;;;1.45;;
23155;SDS011;11746;50.876;4.246;2022-09-09T15:26:18;4.53;;;1.20;;
23155;SDS011;11746;50.876;4.246;2022-09-09T15:28:45;6.60;;;1.23;;
23155;SDS011;11746;50.876;4.246;2022-09-09T15:31:16;3.65;;;1.00;;
23155;SDS011;11746;50.876;4.246;2022-09-09T15:33:50;3.70;;;1.00;;
23155;SDS011;11746;50.876;4.246;2022-09-09T15:36:19;7.68;;;0.95;;
23155;SDS011;11746;50.876;4.246;2022-09-09T15:38:47;4.20;;;0.93;;
23155;SDS011;11746;50.876;4.246;2022-09-09T15:41:14;4.22;;;1.10;;
23155;SDS011;11746;50.876;4.246;2022-09-09T15:43:45;3.15;;;0.80;;
23155;SDS011;11746;50.876;4.246;2022-09-09T15:46:27;4.53;;;1.00;;
23155;SDS011;11746;50.876;4.246;2022-09-09T15:48:57;4.35;;;1.10;;
23155;SDS011;11746;50.876;4.246;2022-09-09T15:51:29;4.47;;;1.20;;
23155;SDS011;11746;50.876;4.246;2022-09-09T15:53:55;2.42;;;0.90;;
23155;SDS011;11746;50.876;4.246;2022-09-09T15:56:26;4.82;;;1.20;;
23155;SDS011;11746;50.876;4.246;2022-09-09T15:58:57;4.50;;;1.40;;
23155;SDS011;11746;50.876;4.246;2022-09-09T16:01:26;3.30;;;1.08;;
23155;SDS011;11746;50.876;4.246;2022-09-09T16:03:53;3.80;;;1.08;;
23155;SDS011;11746;50.876;4.246;2022-09-09T16:06:21;2.65;;;0.85;;
23155;SDS011;11746;50.876;4.246;2022-09-09T16:08:50;3.60;;;0.98;;
23155;SDS011;11746;50.876;4.246;2022-09-09T16:11:19;4.80;;;1.70;;
23155;SDS011;11746;50.876;4.246;2022-09-09T16:13:55;5.13;;;0.98;;
23155;SDS011;11746;50.876;4.246;2022-09-09T16:16:23;7.20;;;0.90;;
23155;SDS011;11746;50.876;4.246;2022-09-09T16:18:53;2.70;;;0.82;;
23155;SDS011;11746;50.876;4.246;2022-09-09T16:21:22;2.85;;;0.80;;
23155;SDS011;11746;50.876;4.246;2022-09-09T16:23:56;4.10;;;0.93;;
23155;SDS011;11746;50.876;4.246;2022-09-09T16:26:27;3.78;;;0.73;;
23155;SDS011;11746;50.876;4.246;2022-09-09T16:28:55;8.15;;;0.82;;
23155;SDS011;11746;50.876;4.246;2022-09-09T16:31:23;3.95;;;1.00;;
23155;SDS011;11746;50.876;4.246;2022-09-09T16:33:50;3.10;;;0.85;;
23155;SDS011;11746;50.876;4.246;2022-09-09T16:36:18;3.33;;;1.15;;
23155;SDS011;11746;50.876;4.246;2022-09-09T16:38:45;2.55;;;0.77;;
23155;SDS011;11746;50.876;4.246;2022-09-09T16:41:12;3.17;;;0.73;;
23155;SDS011;11746;50.876;4.246;2022-09-09T16:43:39;2.10;;;0.60;;
23155;SDS011;11746;50.876;4.246;2022-09-09T16:46:14;3.78;;;0.60;;
23155;SDS011;11746;50.876;4.246;2022-09-09T16:48:44;1.98;;;0.60;;
23155;SDS011;11746;50.876;4.246;2022-09-09T16:51:20;4.25;;;0.82;;
23155;SDS011;11746;50.876;4.246;2022-09-09T16:53:57;3.13;;;0.80;;
23155;SDS011;11746;50.876;4.246;2022-09-09T16:56:26;3.55;;;0.63;;
23155;SDS011;11746;50.876;4.246;2022-09-09T16:58:54;1.70;;;0.60;;
23155;SDS011;11746;50.876;4.246;2022-09-09T17:01:22;2.78;;;0.70;;
23155;SDS011;11746;50.876;4.246;2022-09-09T17:03:53;3.92;;;0.90;;
23155;SDS011;11746;50.876;4.246;2022-09-09T17:06:20;3.42;;;0.77;;
23155;SDS011;11746;50.876;4.246;2022-09-09T17:08:47;4.57;;;0.80;;
23155;SDS011;11746;50.876;4.246;2022-09-09T17:11:17;6.35;;;1.25;;
23155;SDS011;11746;50.876;4.246;2022-09-09T17:13:45;3.65;;;1.00;;
23155;SDS011;11746;50.876;4.246;2022-09-09T17:16:13;2.80;;;1.20;;
23155;SDS011;11746;50.876;4.246;2022-09-09T17:18:40;5.60;;;1.20;;
23155;SDS011;11746;50.876;4.246;2022-09-09T17:21:12;2.58;;;1.00;;
23155;SDS011;11746;50.876;4.246;2022-09-09T17:23:41;4.35;;;1.00;;
23155;SDS011;11746;50.876;4.246;2022-09-09T17:26:09;3.42;;;0.82;;
23155;SDS011;11746;50.876;4.246;2022-09-09T17:28:36;4.53;;;0.90;;
23155;SDS011;11746;50.876;4.246;2022-09-09T17:31:05;4.88;;;1.30;;
23155;SDS011;11746;50.876;4.246;2022-09-09T17:33:33;4.68;;;0.80;;
23155;SDS011;11746;50.876;4.246;2022-09-09T17:36:02;5.10;;;1.10;;
23155;SDS011;11746;50.876;4.246;2022-09-09T17:38:37;5.18;;;0.90;;
23155;SDS011;11746;50.876;4.246;2022-09-09T17:41:07;6.82;;;1.20;;
23155;SDS011;11746;50.876;4.246;2022-09-09T17:43:36;4.53;;;1.02;;
23155;SDS011;11746;50.876;4.246;2022-09-09T17:46:07;4.25;;;1.08;;
23155;SDS011;11746;50.876;4.246;2022-09-09T17:48:34;6.95;;;1.08;;
23155;SDS011;11746;50.876;4.246;2022-09-09T17:51:02;6.70;;;1.30;;
23155;SDS011;11746;50.876;4.246;2022-09-09T17:53:38;5.38;;;1.63;;